Houston, Texas
Traffic Map
Current Weather Conditions
Houston, Texas
Overcast Light Rain
Overcast
60°
Feels Like: 60°
Wind Chill: 60° Ceiling: 400
Heat Index: 60° Visibility: 0.75mi
Dew Point: 59° Wind: 6mph
Humidity: 96% Direction: 320° (NW)
Pressure: 30.23in Gusts: 0mph
Raw Report DataKIAH 221653Z 32005KT 3/4SM -RA BR OVC004 16/15 A3023 RMK AO2 SFC VIS 2 RAB21 SLP236 P0000 T01560150
Traffic Incident Summary
Active as of:
Severity:
Category:
InformationThere was an issue retrieving the traffic information for this location. Please try a different location or try again shortly.
Advertisements